Terminal Aerodrome Forecast
Issued by NWS

Home | Current Version | Previous Version | Text Only | Print | Product List | Glossary On
Versions: 1 2 3 4 5 6 7 8 9 10 11 12 13
000
FTUS46 KSGX 312320
TAFONT
TAF
KONT 312320Z 0100/0206 25011KT P6SM SKC
     FM010400 VRB06KT P6SM FEW010
     FM011100 VRB04KT 6SM BR BKN010
     FM011600 VRB06KT P6SM FEW015
      TEMPO 0116/0118 5SM HZ
     FM012000 25011G18KT P6SM SKC
     FM020400 VRB06KT P6SM SKC=

USA.gov is the U.S. government's official web portal to all federal, state and local government web resources and services.